sensor_id;sensor_type;location;lat;lon;timestamp;P1;durP1;ratioP1;P2;durP2;ratioP2
10523;SDS011;5310;48.638;9.060;2024-03-25T00:00:13;1.10;;;1.10;;
10523;SDS011;5310;48.638;9.060;2024-03-25T00:02:39;1.10;;;1.10;;
10523;SDS011;5310;48.638;9.060;2024-03-25T00:05:06;1.03;;;1.03;;
10523;SDS011;5310;48.638;9.060;2024-03-25T00:07:36;1.10;;;1.10;;
10523;SDS011;5310;48.638;9.060;2024-03-25T00:10:02;1.10;;;1.10;;
10523;SDS011;5310;48.638;9.060;2024-03-25T00:12:28;1.10;;;1.10;;
10523;SDS011;5310;48.638;9.060;2024-03-25T00:14:54;1.10;;;1.10;;
10523;SDS011;5310;48.638;9.060;2024-03-25T00:17:20;1.10;;;1.10;;
10523;SDS011;5310;48.638;9.060;2024-03-25T00:19:46;1.10;;;1.10;;
10523;SDS011;5310;48.638;9.060;2024-03-25T00:22:16;1.10;;;1.10;;
10523;SDS011;5310;48.638;9.060;2024-03-25T00:24:42;1.00;;;1.00;;
10523;SDS011;5310;48.638;9.060;2024-03-25T00:27:08;1.07;;;1.07;;
10523;SDS011;5310;48.638;9.060;2024-03-25T00:29:34;1.10;;;1.10;;
10523;SDS011;5310;48.638;9.060;2024-03-25T00:32:00;1.10;;;1.10;;
10523;SDS011;5310;48.638;9.060;2024-03-25T00:34:26;1.10;;;1.10;;
10523;SDS011;5310;48.638;9.060;2024-03-25T00:36:52;1.10;;;1.10;;
10523;SDS011;5310;48.638;9.060;2024-03-25T00:39:18;1.10;;;1.10;;
10523;SDS011;5310;48.638;9.060;2024-03-25T00:41:44;1.10;;;1.10;;
10523;SDS011;5310;48.638;9.060;2024-03-25T00:44:10;1.10;;;1.10;;
10523;SDS011;5310;48.638;9.060;2024-03-25T00:46:36;1.10;;;1.10;;
10523;SDS011;5310;48.638;9.060;2024-03-25T00:49:02;1.10;;;1.10;;
10523;SDS011;5310;48.638;9.060;2024-03-25T00:51:28;1.10;;;1.10;;
10523;SDS011;5310;48.638;9.060;2024-03-25T00:53:54;1.10;;;1.10;;
10523;SDS011;5310;48.638;9.060;2024-03-25T00:56:20;1.10;;;1.10;;
10523;SDS011;5310;48.638;9.060;2024-03-25T00:58:46;1.10;;;1.10;;
10523;SDS011;5310;48.638;9.060;2024-03-25T01:01:11;1.13;;;1.13;;
10523;SDS011;5310;48.638;9.060;2024-03-25T01:03:38;1.17;;;1.17;;
10523;SDS011;5310;48.638;9.060;2024-03-25T01:06:04;1.10;;;1.10;;
10523;SDS011;5310;48.638;9.060;2024-03-25T01:08:30;1.10;;;1.10;;
10523;SDS011;5310;48.638;9.060;2024-03-25T01:10:56;1.10;;;1.10;;
10523;SDS011;5310;48.638;9.060;2024-03-25T01:13:22;1.10;;;1.10;;
10523;SDS011;5310;48.638;9.060;2024-03-25T01:15:48;1.10;;;1.10;;
10523;SDS011;5310;48.638;9.060;2024-03-25T01:18:14;1.10;;;1.10;;
10523;SDS011;5310;48.638;9.060;2024-03-25T01:20:40;1.10;;;1.10;;
10523;SDS011;5310;48.638;9.060;2024-03-25T01:23:06;1.10;;;1.10;;
10523;SDS011;5310;48.638;9.060;2024-03-25T01:25:31;1.10;;;1.10;;
10523;SDS011;5310;48.638;9.060;2024-03-25T01:27:57;1.10;;;1.10;;
10523;SDS011;5310;48.638;9.060;2024-03-25T01:30:23;1.10;;;1.10;;
10523;SDS011;5310;48.638;9.060;2024-03-25T01:32:49;1.13;;;1.10;;
10523;SDS011;5310;48.638;9.060;2024-03-25T01:35:15;1.10;;;1.10;;
10523;SDS011;5310;48.638;9.060;2024-03-25T01:37:41;1.10;;;1.10;;
10523;SDS011;5310;48.638;9.060;2024-03-25T01:40:07;1.10;;;1.10;;
10523;SDS011;5310;48.638;9.060;2024-03-25T01:42:35;1.10;;;1.10;;
10523;SDS011;5310;48.638;9.060;2024-03-25T01:45:01;1.10;;;1.10;;
10523;SDS011;5310;48.638;9.060;2024-03-25T01:47:28;1.10;;;1.10;;
10523;SDS011;5310;48.638;9.060;2024-03-25T01:49:56;1.10;;;1.10;;
10523;SDS011;5310;48.638;9.060;2024-03-25T01:52:22;1.10;;;1.10;;
10523;SDS011;5310;48.638;9.060;2024-03-25T01:54:50;1.10;;;1.10;;
10523;SDS011;5310;48.638;9.060;2024-03-25T01:57:16;1.10;;;1.10;;
10523;SDS011;5310;48.638;9.060;2024-03-25T01:59:42;1.10;;;1.10;;
10523;SDS011;5310;48.638;9.060;2024-03-25T02:02:08;1.00;;;1.00;;
10523;SDS011;5310;48.638;9.060;2024-03-25T02:04:36;1.10;;;1.10;;
10523;SDS011;5310;48.638;9.060;2024-03-25T02:07:02;1.00;;;1.00;;
10523;SDS011;5310;48.638;9.060;2024-03-25T02:09:28;1.10;;;1.10;;
10523;SDS011;5310;48.638;9.060;2024-03-25T02:11:54;1.10;;;1.10;;
10523;SDS011;5310;48.638;9.060;2024-03-25T02:14:20;1.10;;;1.10;;
10523;SDS011;5310;48.638;9.060;2024-03-25T02:16:46;1.10;;;1.10;;
10523;SDS011;5310;48.638;9.060;2024-03-25T02:19:12;1.10;;;1.10;;
10523;SDS011;5310;48.638;9.060;2024-03-25T02:21:39;1.10;;;1.10;;
10523;SDS011;5310;48.638;9.060;2024-03-25T02:24:05;1.10;;;1.10;;
10523;SDS011;5310;48.638;9.060;2024-03-25T02:26:34;1.10;;;1.10;;
10523;SDS011;5310;48.638;9.060;2024-03-25T02:29:00;1.10;;;1.10;;
10523;SDS011;5310;48.638;9.060;2024-03-25T02:31:27;1.10;;;1.10;;
10523;SDS011;5310;48.638;9.060;2024-03-25T02:33:53;1.10;;;1.10;;
10523;SDS011;5310;48.638;9.060;2024-03-25T02:36:19;1.10;;;1.10;;
10523;SDS011;5310;48.638;9.060;2024-03-25T02:38:45;1.10;;;1.10;;
10523;SDS011;5310;48.638;9.060;2024-03-25T02:41:11;1.10;;;1.10;;
10523;SDS011;5310;48.638;9.060;2024-03-25T02:43:37;1.10;;;1.10;;
10523;SDS011;5310;48.638;9.060;2024-03-25T02:46:03;1.10;;;1.10;;
10523;SDS011;5310;48.638;9.060;2024-03-25T02:48:29;1.10;;;1.10;;
10523;SDS011;5310;48.638;9.060;2024-03-25T02:50:55;1.10;;;1.10;;
10523;SDS011;5310;48.638;9.060;2024-03-25T02:53:20;1.00;;;1.00;;
10523;SDS011;5310;48.638;9.060;2024-03-25T02:55:46;1.10;;;1.10;;
10523;SDS011;5310;48.638;9.060;2024-03-25T02:58:12;1.10;;;1.10;;
10523;SDS011;5310;48.638;9.060;2024-03-25T03:00:38;1.00;;;1.00;;
10523;SDS011;5310;48.638;9.060;2024-03-25T03:03:04;1.10;;;1.10;;
10523;SDS011;5310;48.638;9.060;2024-03-25T03:05:29;1.00;;;1.00;;
10523;SDS011;5310;48.638;9.060;2024-03-25T03:07:55;1.10;;;1.10;;
10523;SDS011;5310;48.638;9.060;2024-03-25T03:10:21;1.10;;;1.10;;
10523;SDS011;5310;48.638;9.060;2024-03-25T03:12:47;1.10;;;1.10;;
10523;SDS011;5310;48.638;9.060;2024-03-25T03:15:13;1.10;;;1.10;;
10523;SDS011;5310;48.638;9.060;2024-03-25T03:17:40;1.10;;;1.10;;
10523;SDS011;5310;48.638;9.060;2024-03-25T03:20:06;1.10;;;1.10;;
10523;SDS011;5310;48.638;9.060;2024-03-25T03:22:32;1.10;;;1.10;;
10523;SDS011;5310;48.638;9.060;2024-03-25T03:24:58;1.07;;;1.07;;
10523;SDS011;5310;48.638;9.060;2024-03-25T03:27:24;1.10;;;1.10;;
10523;SDS011;5310;48.638;9.060;2024-03-25T03:29:50;1.10;;;1.10;;
10523;SDS011;5310;48.638;9.060;2024-03-25T03:32:16;1.10;;;1.10;;
10523;SDS011;5310;48.638;9.060;2024-03-25T03:34:42;1.10;;;1.10;;
10523;SDS011;5310;48.638;9.060;2024-03-25T03:37:08;1.00;;;1.00;;
10523;SDS011;5310;48.638;9.060;2024-03-25T03:39:33;1.10;;;1.10;;
10523;SDS011;5310;48.638;9.060;2024-03-25T03:41:59;1.10;;;1.10;;
10523;SDS011;5310;48.638;9.060;2024-03-25T03:44:25;1.10;;;1.10;;
10523;SDS011;5310;48.638;9.060;2024-03-25T03:46:51;1.10;;;1.10;;
10523;SDS011;5310;48.638;9.060;2024-03-25T03:49:17;1.10;;;1.10;;
10523;SDS011;5310;48.638;9.060;2024-03-25T03:51:43;1.00;;;1.00;;
10523;SDS011;5310;48.638;9.060;2024-03-25T03:54:09;1.10;;;1.10;;
10523;SDS011;5310;48.638;9.060;2024-03-25T03:56:35;1.00;;;1.00;;
10523;SDS011;5310;48.638;9.060;2024-03-25T03:59:01;1.10;;;1.10;;
10523;SDS011;5310;48.638;9.060;2024-03-25T04:01:26;1.10;;;1.10;;
10523;SDS011;5310;48.638;9.060;2024-03-25T04:03:53;1.10;;;1.10;;
10523;SDS011;5310;48.638;9.060;2024-03-25T04:06:20;1.00;;;1.00;;
10523;SDS011;5310;48.638;9.060;2024-03-25T04:08:46;1.00;;;1.00;;
10523;SDS011;5310;48.638;9.060;2024-03-25T04:11:11;1.10;;;1.10;;
10523;SDS011;5310;48.638;9.060;2024-03-25T04:13:37;1.10;;;1.10;;
10523;SDS011;5310;48.638;9.060;2024-03-25T04:16:04;1.10;;;1.10;;
10523;SDS011;5310;48.638;9.060;2024-03-25T04:18:31;1.10;;;1.10;;
10523;SDS011;5310;48.638;9.060;2024-03-25T04:20:58;1.10;;;1.10;;
10523;SDS011;5310;48.638;9.060;2024-03-25T04:23:24;1.10;;;1.10;;
10523;SDS011;5310;48.638;9.060;2024-03-25T04:25:50;1.10;;;1.10;;
10523;SDS011;5310;48.638;9.060;2024-03-25T04:28:16;1.00;;;1.00;;
10523;SDS011;5310;48.638;9.060;2024-03-25T04:30:42;1.10;;;1.10;;
10523;SDS011;5310;48.638;9.060;2024-03-25T04:33:08;1.10;;;1.10;;
10523;SDS011;5310;48.638;9.060;2024-03-25T04:35:34;1.10;;;1.10;;
10523;SDS011;5310;48.638;9.060;2024-03-25T04:38:00;1.10;;;1.10;;
10523;SDS011;5310;48.638;9.060;2024-03-25T04:40:26;1.00;;;1.00;;
10523;SDS011;5310;48.638;9.060;2024-03-25T04:42:52;1.10;;;1.10;;
10523;SDS011;5310;48.638;9.060;2024-03-25T04:45:18;1.00;;;1.00;;
10523;SDS011;5310;48.638;9.060;2024-03-25T04:47:43;1.10;;;1.10;;
10523;SDS011;5310;48.638;9.060;2024-03-25T04:50:09;1.10;;;1.10;;
10523;SDS011;5310;48.638;9.060;2024-03-25T04:52:35;1.00;;;1.00;;
10523;SDS011;5310;48.638;9.060;2024-03-25T04:55:01;1.00;;;1.00;;
10523;SDS011;5310;48.638;9.060;2024-03-25T04:57:27;1.10;;;1.10;;
10523;SDS011;5310;48.638;9.060;2024-03-25T04:59:53;1.10;;;1.10;;
10523;SDS011;5310;48.638;9.060;2024-03-25T05:02:19;1.00;;;1.00;;
10523;SDS011;5310;48.638;9.060;2024-03-25T05:04:45;1.10;;;1.10;;
10523;SDS011;5310;48.638;9.060;2024-03-25T05:07:11;1.10;;;1.10;;
10523;SDS011;5310;48.638;9.060;2024-03-25T05:09:37;1.00;;;1.00;;
10523;SDS011;5310;48.638;9.060;2024-03-25T05:12:02;1.10;;;1.10;;
10523;SDS011;5310;48.638;9.060;2024-03-25T05:14:28;1.10;;;1.10;;
10523;SDS011;5310;48.638;9.060;2024-03-25T05:16:54;1.10;;;1.10;;
10523;SDS011;5310;48.638;9.060;2024-03-25T05:19:21;1.10;;;1.10;;
10523;SDS011;5310;48.638;9.060;2024-03-25T05:21:47;1.10;;;1.10;;
10523;SDS011;5310;48.638;9.060;2024-03-25T05:24:13;1.10;;;1.10;;
10523;SDS011;5310;48.638;9.060;2024-03-25T05:26:39;1.10;;;1.10;;
10523;SDS011;5310;48.638;9.060;2024-03-25T05:29:05;1.10;;;1.10;;
10523;SDS011;5310;48.638;9.060;2024-03-25T05:31:32;1.10;;;1.10;;
10523;SDS011;5310;48.638;9.060;2024-03-25T05:33:59;1.10;;;1.10;;
10523;SDS011;5310;48.638;9.060;2024-03-25T05:36:27;1.10;;;1.10;;
10523;SDS011;5310;48.638;9.060;2024-03-25T05:38:53;1.10;;;1.10;;
10523;SDS011;5310;48.638;9.060;2024-03-25T05:41:20;1.10;;;1.10;;
10523;SDS011;5310;48.638;9.060;2024-03-25T05:43:46;1.10;;;1.10;;
10523;SDS011;5310;48.638;9.060;2024-03-25T05:46:12;1.10;;;1.10;;
10523;SDS011;5310;48.638;9.060;2024-03-25T05:48:38;1.10;;;1.10;;
10523;SDS011;5310;48.638;9.060;2024-03-25T05:51:04;1.10;;;1.10;;
10523;SDS011;5310;48.638;9.060;2024-03-25T05:53:30;1.00;;;1.00;;
10523;SDS011;5310;48.638;9.060;2024-03-25T05:55:56;1.00;;;1.00;;
10523;SDS011;5310;48.638;9.060;2024-03-25T05:58:24;1.10;;;1.10;;
10523;SDS011;5310;48.638;9.060;2024-03-25T06:00:50;1.10;;;1.10;;
10523;SDS011;5310;48.638;9.060;2024-03-25T06:03:16;1.10;;;1.10;;
10523;SDS011;5310;48.638;9.060;2024-03-25T06:05:43;1.10;;;1.10;;
10523;SDS011;5310;48.638;9.060;2024-03-25T06:08:08;1.10;;;1.10;;
10523;SDS011;5310;48.638;9.060;2024-03-25T06:10:43;1.10;;;1.10;;
10523;SDS011;5310;48.638;9.060;2024-03-25T06:13:09;1.10;;;1.10;;
10523;SDS011;5310;48.638;9.060;2024-03-25T06:15:35;1.10;;;1.10;;
10523;SDS011;5310;48.638;9.060;2024-03-25T06:18:01;1.10;;;1.10;;
10523;SDS011;5310;48.638;9.060;2024-03-25T06:20:26;1.10;;;1.10;;
10523;SDS011;5310;48.638;9.060;2024-03-25T06:22:52;1.10;;;1.10;;
10523;SDS011;5310;48.638;9.060;2024-03-25T06:25:18;1.10;;;1.10;;
10523;SDS011;5310;48.638;9.060;2024-03-25T06:27:44;1.00;;;1.00;;
10523;SDS011;5310;48.638;9.060;2024-03-25T06:30:11;1.10;;;1.10;;
10523;SDS011;5310;48.638;9.060;2024-03-25T06:32:55;1.10;;;1.10;;
10523;SDS011;5310;48.638;9.060;2024-03-25T06:35:42;1.10;;;1.10;;
10523;SDS011;5310;48.638;9.060;2024-03-25T06:38:08;1.00;;;1.00;;
10523;SDS011;5310;48.638;9.060;2024-03-25T06:40:34;1.00;;;1.00;;
10523;SDS011;5310;48.638;9.060;2024-03-25T06:43:00;1.10;;;1.10;;
10523;SDS011;5310;48.638;9.060;2024-03-25T06:45:26;1.00;;;1.00;;
10523;SDS011;5310;48.638;9.060;2024-03-25T06:47:52;1.10;;;1.10;;
10523;SDS011;5310;48.638;9.060;2024-03-25T06:50:17;1.00;;;1.00;;
10523;SDS011;5310;48.638;9.060;2024-03-25T06:52:43;1.10;;;1.10;;
10523;SDS011;5310;48.638;9.060;2024-03-25T06:55:09;1.00;;;1.00;;
10523;SDS011;5310;48.638;9.060;2024-03-25T06:57:35;1.10;;;1.10;;
10523;SDS011;5310;48.638;9.060;2024-03-25T07:00:01;1.00;;;1.00;;
10523;SDS011;5310;48.638;9.060;2024-03-25T07:02:31;1.00;;;1.00;;
10523;SDS011;5310;48.638;9.060;2024-03-25T07:04:57;1.00;;;1.00;;
10523;SDS011;5310;48.638;9.060;2024-03-25T07:07:23;1.00;;;1.00;;
10523;SDS011;5310;48.638;9.060;2024-03-25T07:09:49;1.00;;;1.00;;
10523;SDS011;5310;48.638;9.060;2024-03-25T07:12:15;1.10;;;1.10;;
10523;SDS011;5310;48.638;9.060;2024-03-25T07:14:41;1.00;;;1.00;;
10523;SDS011;5310;48.638;9.060;2024-03-25T07:17:06;1.00;;;1.00;;
10523;SDS011;5310;48.638;9.060;2024-03-25T07:19:32;1.10;;;1.10;;
10523;SDS011;5310;48.638;9.060;2024-03-25T07:21:58;1.00;;;1.00;;
10523;SDS011;5310;48.638;9.060;2024-03-25T07:24:24;1.00;;;1.00;;
10523;SDS011;5310;48.638;9.060;2024-03-25T07:26:50;1.00;;;1.00;;
10523;SDS011;5310;48.638;9.060;2024-03-25T07:29:16;1.00;;;1.00;;
10523;SDS011;5310;48.638;9.060;2024-03-25T07:31:42;1.00;;;1.00;;
10523;SDS011;5310;48.638;9.060;2024-03-25T07:34:08;1.00;;;1.00;;
10523;SDS011;5310;48.638;9.060;2024-03-25T07:36:36;1.00;;;1.00;;
10523;SDS011;5310;48.638;9.060;2024-03-25T07:39:02;1.00;;;1.00;;
10523;SDS011;5310;48.638;9.060;2024-03-25T07:41:30;1.00;;;1.00;;
10523;SDS011;5310;48.638;9.060;2024-03-25T07:43:56;0.97;;;0.97;;
10523;SDS011;5310;48.638;9.060;2024-03-25T07:46:22;1.00;;;1.00;;
10523;SDS011;5310;48.638;9.060;2024-03-25T07:48:48;1.00;;;1.00;;
10523;SDS011;5310;48.638;9.060;2024-03-25T07:51:14;1.00;;;1.00;;
10523;SDS011;5310;48.638;9.060;2024-03-25T07:53:41;1.00;;;1.00;;
10523;SDS011;5310;48.638;9.060;2024-03-25T07:56:06;1.00;;;1.00;;
10523;SDS011;5310;48.638;9.060;2024-03-25T07:58:32;1.00;;;1.00;;
10523;SDS011;5310;48.638;9.060;2024-03-25T08:00:58;1.00;;;1.00;;
10523;SDS011;5310;48.638;9.060;2024-03-25T08:03:24;1.00;;;1.00;;
10523;SDS011;5310;48.638;9.060;2024-03-25T08:05:51;0.90;;;0.90;;
10523;SDS011;5310;48.638;9.060;2024-03-25T08:08:17;0.90;;;0.90;;
10523;SDS011;5310;48.638;9.060;2024-03-25T08:10:42;0.90;;;0.90;;
10523;SDS011;5310;48.638;9.060;2024-03-25T08:13:08;1.00;;;1.00;;
10523;SDS011;5310;48.638;9.060;2024-03-25T08:15:34;0.90;;;0.90;;
10523;SDS011;5310;48.638;9.060;2024-03-25T08:18:00;1.00;;;1.00;;
10523;SDS011;5310;48.638;9.060;2024-03-25T08:20:26;0.93;;;0.93;;
10523;SDS011;5310;48.638;9.060;2024-03-25T08:22:52;0.90;;;0.90;;
10523;SDS011;5310;48.638;9.060;2024-03-25T08:25:18;0.90;;;0.90;;
10523;SDS011;5310;48.638;9.060;2024-03-25T08:27:44;0.97;;;0.97;;
10523;SDS011;5310;48.638;9.060;2024-03-25T08:30:10;0.90;;;0.90;;
10523;SDS011;5310;48.638;9.060;2024-03-25T08:32:36;1.00;;;1.00;;
10523;SDS011;5310;48.638;9.060;2024-03-25T08:35:01;0.90;;;0.90;;
10523;SDS011;5310;48.638;9.060;2024-03-25T08:37:27;0.90;;;0.90;;
10523;SDS011;5310;48.638;9.060;2024-03-25T08:39:53;1.00;;;1.00;;
10523;SDS011;5310;48.638;9.060;2024-03-25T08:42:19;0.90;;;0.90;;
10523;SDS011;5310;48.638;9.060;2024-03-25T08:44:46;0.90;;;0.90;;
10523;SDS011;5310;48.638;9.060;2024-03-25T08:47:12;0.90;;;0.90;;
10523;SDS011;5310;48.638;9.060;2024-03-25T08:49:38;0.90;;;0.90;;
10523;SDS011;5310;48.638;9.060;2024-03-25T08:52:04;0.90;;;0.90;;
10523;SDS011;5310;48.638;9.060;2024-03-25T08:54:30;0.90;;;0.90;;
10523;SDS011;5310;48.638;9.060;2024-03-25T08:56:55;0.80;;;0.80;;
10523;SDS011;5310;48.638;9.060;2024-03-25T08:59:21;0.90;;;0.90;;
10523;SDS011;5310;48.638;9.060;2024-03-25T09:01:47;0.90;;;0.90;;
10523;SDS011;5310;48.638;9.060;2024-03-25T09:04:13;0.90;;;0.90;;
10523;SDS011;5310;48.638;9.060;2024-03-25T09:06:39;0.90;;;0.90;;
10523;SDS011;5310;48.638;9.060;2024-03-25T09:09:05;0.90;;;0.90;;
10523;SDS011;5310;48.638;9.060;2024-03-25T09:11:49;0.80;;;0.80;;
10523;SDS011;5310;48.638;9.060;2024-03-25T09:14:16;0.90;;;0.90;;
10523;SDS011;5310;48.638;9.060;2024-03-25T09:16:42;0.80;;;0.80;;
10523;SDS011;5310;48.638;9.060;2024-03-25T09:19:08;0.90;;;0.90;;
10523;SDS011;5310;48.638;9.060;2024-03-25T09:21:33;0.80;;;0.80;;
10523;SDS011;5310;48.638;9.060;2024-03-25T09:24:00;0.80;;;0.80;;
10523;SDS011;5310;48.638;9.060;2024-03-25T09:26:25;0.90;;;0.90;;
10523;SDS011;5310;48.638;9.060;2024-03-25T09:28:51;0.90;;;0.90;;
10523;SDS011;5310;48.638;9.060;2024-03-25T09:31:17;0.90;;;0.90;;
10523;SDS011;5310;48.638;9.060;2024-03-25T09:33:43;0.73;;;0.73;;
10523;SDS011;5310;48.638;9.060;2024-03-25T09:36:09;0.70;;;0.70;;
10523;SDS011;5310;48.638;9.060;2024-03-25T09:38:36;0.90;;;0.90;;
10523;SDS011;5310;48.638;9.060;2024-03-25T09:41:02;0.80;;;0.80;;
10523;SDS011;5310;48.638;9.060;2024-03-25T09:46:06;0.80;;;0.80;;
10523;SDS011;5310;48.638;9.060;2024-03-25T09:48:32;0.70;;;0.70;;
10523;SDS011;5310;48.638;9.060;2024-03-25T09:50:59;0.80;;;0.80;;
10523;SDS011;5310;48.638;9.060;2024-03-25T09:53:25;0.80;;;0.80;;
10523;SDS011;5310;48.638;9.060;2024-03-25T09:55:51;0.80;;;0.80;;
10523;SDS011;5310;48.638;9.060;2024-03-25T09:58:17;0.77;;;0.77;;
10523;SDS011;5310;48.638;9.060;2024-03-25T10:00:44;0.70;;;0.70;;
10523;SDS011;5310;48.638;9.060;2024-03-25T10:03:10;0.70;;;0.70;;
10523;SDS011;5310;48.638;9.060;2024-03-25T10:05:38;0.70;;;0.70;;
10523;SDS011;5310;48.638;9.060;2024-03-25T10:08:04;0.60;;;0.60;;
10523;SDS011;5310;48.638;9.060;2024-03-25T10:10:30;0.60;;;0.60;;
10523;SDS011;5310;48.638;9.060;2024-03-25T10:12:56;0.77;;;0.77;;
10523;SDS011;5310;48.638;9.060;2024-03-25T10:15:22;0.70;;;0.70;;
10523;SDS011;5310;48.638;9.060;2024-03-25T10:17:51;0.70;;;0.70;;
10523;SDS011;5310;48.638;9.060;2024-03-25T10:20:17;0.70;;;0.70;;
10523;SDS011;5310;48.638;9.060;2024-03-25T10:22:43;0.80;;;0.80;;
10523;SDS011;5310;48.638;9.060;2024-03-25T10:25:26;0.60;;;0.60;;
10523;SDS011;5310;48.638;9.060;2024-03-25T10:27:59;0.63;;;0.63;;
10523;SDS011;5310;48.638;9.060;2024-03-25T10:30:26;0.80;;;0.80;;
10523;SDS011;5310;48.638;9.060;2024-03-25T10:32:59;0.70;;;0.70;;
10523;SDS011;5310;48.638;9.060;2024-03-25T10:35:29;0.63;;;0.63;;
10523;SDS011;5310;48.638;9.060;2024-03-25T10:37:59;0.63;;;0.63;;
10523;SDS011;5310;48.638;9.060;2024-03-25T10:40:27;0.60;;;0.60;;
10523;SDS011;5310;48.638;9.060;2024-03-25T10:43:02;0.90;;;0.90;;
10523;SDS011;5310;48.638;9.060;2024-03-25T10:45:33;0.70;;;0.70;;
10523;SDS011;5310;48.638;9.060;2024-03-25T10:48:21;0.70;;;0.70;;
10523;SDS011;5310;48.638;9.060;2024-03-25T10:50:45;0.70;;;0.70;;
10523;SDS011;5310;48.638;9.060;2024-03-25T10:53:11;0.80;;;0.80;;
10523;SDS011;5310;48.638;9.060;2024-03-25T10:55:39;0.60;;;0.60;;
10523;SDS011;5310;48.638;9.060;2024-03-25T10:58:05;0.70;;;0.70;;
10523;SDS011;5310;48.638;9.060;2024-03-25T11:00:32;0.60;;;0.60;;
10523;SDS011;5310;48.638;9.060;2024-03-25T11:02:59;0.70;;;0.70;;
10523;SDS011;5310;48.638;9.060;2024-03-25T11:05:26;0.77;;;0.77;;
10523;SDS011;5310;48.638;9.060;2024-03-25T11:07:52;0.60;;;0.60;;
10523;SDS011;5310;48.638;9.060;2024-03-25T11:10:18;0.60;;;0.60;;
10523;SDS011;5310;48.638;9.060;2024-03-25T11:12:44;0.70;;;0.70;;
10523;SDS011;5310;48.638;9.060;2024-03-25T11:15:10;0.80;;;0.80;;
10523;SDS011;5310;48.638;9.060;2024-03-25T11:17:36;0.70;;;0.70;;
10523;SDS011;5310;48.638;9.060;2024-03-25T11:20:20;0.70;;;0.70;;
10523;SDS011;5310;48.638;9.060;2024-03-25T11:22:52;0.70;;;0.70;;
10523;SDS011;5310;48.638;9.060;2024-03-25T11:25:21;0.60;;;0.60;;
10523;SDS011;5310;48.638;9.060;2024-03-25T11:27:47;0.70;;;0.70;;
10523;SDS011;5310;48.638;9.060;2024-03-25T11:30:13;0.70;;;0.70;;
10523;SDS011;5310;48.638;9.060;2024-03-25T11:32:43;0.70;;;0.70;;
10523;SDS011;5310;48.638;9.060;2024-03-25T11:35:09;0.60;;;0.60;;
10523;SDS011;5310;48.638;9.060;2024-03-25T11:37:41;0.70;;;0.70;;
10523;SDS011;5310;48.638;9.060;2024-03-25T11:40:08;0.70;;;0.70;;
10523;SDS011;5310;48.638;9.060;2024-03-25T11:42:37;0.67;;;0.67;;
10523;SDS011;5310;48.638;9.060;2024-03-25T11:45:04;0.70;;;0.70;;
10523;SDS011;5310;48.638;9.060;2024-03-25T11:47:39;0.70;;;0.70;;
10523;SDS011;5310;48.638;9.060;2024-03-25T11:50:08;0.70;;;0.70;;
10523;SDS011;5310;48.638;9.060;2024-03-25T11:52:35;0.73;;;0.73;;
10523;SDS011;5310;48.638;9.060;2024-03-25T11:55:01;0.80;;;0.80;;
10523;SDS011;5310;48.638;9.060;2024-03-25T11:57:28;0.70;;;0.70;;
10523;SDS011;5310;48.638;9.060;2024-03-25T11:59:54;0.80;;;0.80;;
10523;SDS011;5310;48.638;9.060;2024-03-25T12:02:20;0.80;;;0.80;;
10523;SDS011;5310;48.638;9.060;2024-03-25T12:04:47;0.70;;;0.70;;
10523;SDS011;5310;48.638;9.060;2024-03-25T12:07:14;0.70;;;0.70;;
10523;SDS011;5310;48.638;9.060;2024-03-25T12:09:39;0.80;;;0.80;;
10523;SDS011;5310;48.638;9.060;2024-03-25T12:12:24;0.77;;;0.77;;
10523;SDS011;5310;48.638;9.060;2024-03-25T12:14:51;0.80;;;0.80;;
10523;SDS011;5310;48.638;9.060;2024-03-25T12:17:17;0.70;;;0.70;;
10523;SDS011;5310;48.638;9.060;2024-03-25T12:19:44;0.70;;;0.70;;
10523;SDS011;5310;48.638;9.060;2024-03-25T12:22:24;0.70;;;0.70;;
10523;SDS011;5310;48.638;9.060;2024-03-25T12:24:50;0.70;;;0.70;;
10523;SDS011;5310;48.638;9.060;2024-03-25T12:27:16;0.80;;;0.80;;
10523;SDS011;5310;48.638;9.060;2024-03-25T12:29:42;0.70;;;0.70;;
10523;SDS011;5310;48.638;9.060;2024-03-25T12:32:11;0.70;;;0.70;;
10523;SDS011;5310;48.638;9.060;2024-03-25T12:34:37;0.70;;;0.70;;
10523;SDS011;5310;48.638;9.060;2024-03-25T12:37:03;0.63;;;0.63;;
10523;SDS011;5310;48.638;9.060;2024-03-25T12:39:33;0.70;;;0.70;;
10523;SDS011;5310;48.638;9.060;2024-03-25T12:42:03;0.70;;;0.70;;
10523;SDS011;5310;48.638;9.060;2024-03-25T12:44:29;0.80;;;0.80;;
10523;SDS011;5310;48.638;9.060;2024-03-25T12:46:55;0.73;;;0.73;;
10523;SDS011;5310;48.638;9.060;2024-03-25T12:49:23;0.70;;;0.70;;
10523;SDS011;5310;48.638;9.060;2024-03-25T12:51:49;0.73;;;0.73;;
10523;SDS011;5310;48.638;9.060;2024-03-25T12:54:15;0.77;;;0.77;;
10523;SDS011;5310;48.638;9.060;2024-03-25T12:56:41;0.80;;;0.80;;
10523;SDS011;5310;48.638;9.060;2024-03-25T12:59:07;0.70;;;0.70;;
10523;SDS011;5310;48.638;9.060;2024-03-25T13:01:33;0.80;;;0.80;;
10523;SDS011;5310;48.638;9.060;2024-03-25T13:03:59;0.73;;;0.73;;
10523;SDS011;5310;48.638;9.060;2024-03-25T13:06:25;0.80;;;0.80;;
10523;SDS011;5310;48.638;9.060;2024-03-25T13:08:51;0.77;;;0.77;;
10523;SDS011;5310;48.638;9.060;2024-03-25T13:11:17;0.73;;;0.73;;
10523;SDS011;5310;48.638;9.060;2024-03-25T13:13:43;0.80;;;0.80;;
10523;SDS011;5310;48.638;9.060;2024-03-25T13:16:09;0.70;;;0.70;;
10523;SDS011;5310;48.638;9.060;2024-03-25T13:18:35;0.73;;;0.73;;
10523;SDS011;5310;48.638;9.060;2024-03-25T13:21:01;0.60;;;0.60;;
10523;SDS011;5310;48.638;9.060;2024-03-25T13:23:26;0.70;;;0.70;;
10523;SDS011;5310;48.638;9.060;2024-03-25T13:25:52;0.70;;;0.70;;
10523;SDS011;5310;48.638;9.060;2024-03-25T13:28:18;0.80;;;0.80;;
10523;SDS011;5310;48.638;9.060;2024-03-25T13:30:44;0.70;;;0.70;;
10523;SDS011;5310;48.638;9.060;2024-03-25T13:33:10;0.70;;;0.70;;
10523;SDS011;5310;48.638;9.060;2024-03-25T13:35:36;0.60;;;0.60;;
10523;SDS011;5310;48.638;9.060;2024-03-25T13:38:03;0.90;;;0.90;;
10523;SDS011;5310;48.638;9.060;2024-03-25T13:40:29;0.70;;;0.70;;
10523;SDS011;5310;48.638;9.060;2024-03-25T13:42:55;0.90;;;0.90;;
10523;SDS011;5310;48.638;9.060;2024-03-25T13:45:21;0.70;;;0.70;;
10523;SDS011;5310;48.638;9.060;2024-03-25T13:47:47;0.80;;;0.80;;
10523;SDS011;5310;48.638;9.060;2024-03-25T13:50:13;0.77;;;0.77;;
10523;SDS011;5310;48.638;9.060;2024-03-25T13:52:39;0.80;;;0.80;;
10523;SDS011;5310;48.638;9.060;2024-03-25T13:55:05;0.70;;;0.70;;
10523;SDS011;5310;48.638;9.060;2024-03-25T13:57:31;0.70;;;0.70;;
10523;SDS011;5310;48.638;9.060;2024-03-25T13:59:57;0.80;;;0.80;;
10523;SDS011;5310;48.638;9.060;2024-03-25T14:02:23;0.70;;;0.70;;
10523;SDS011;5310;48.638;9.060;2024-03-25T14:04:49;0.60;;;0.60;;
10523;SDS011;5310;48.638;9.060;2024-03-25T14:07:15;0.80;;;0.80;;
10523;SDS011;5310;48.638;9.060;2024-03-25T14:09:42;0.70;;;0.70;;
10523;SDS011;5310;48.638;9.060;2024-03-25T14:12:08;0.80;;;0.80;;
10523;SDS011;5310;48.638;9.060;2024-03-25T14:14:34;0.83;;;0.83;;
10523;SDS011;5310;48.638;9.060;2024-03-25T14:17:00;0.77;;;0.77;;
10523;SDS011;5310;48.638;9.060;2024-03-25T14:19:26;0.80;;;0.80;;
10523;SDS011;5310;48.638;9.060;2024-03-25T14:21:52;0.80;;;0.80;;
10523;SDS011;5310;48.638;9.060;2024-03-25T14:24:18;0.70;;;0.70;;
10523;SDS011;5310;48.638;9.060;2024-03-25T14:26:44;0.70;;;0.70;;
10523;SDS011;5310;48.638;9.060;2024-03-25T14:29:10;0.80;;;0.80;;
10523;SDS011;5310;48.638;9.060;2024-03-25T14:31:36;0.70;;;0.70;;
10523;SDS011;5310;48.638;9.060;2024-03-25T14:34:02;0.70;;;0.70;;
10523;SDS011;5310;48.638;9.060;2024-03-25T14:36:28;0.70;;;0.70;;
10523;SDS011;5310;48.638;9.060;2024-03-25T14:38:53;0.70;;;0.70;;
10523;SDS011;5310;48.638;9.060;2024-03-25T14:41:20;0.73;;;0.73;;
10523;SDS011;5310;48.638;9.060;2024-03-25T14:43:46;0.80;;;0.80;;
10523;SDS011;5310;48.638;9.060;2024-03-25T14:46:15;0.80;;;0.80;;
10523;SDS011;5310;48.638;9.060;2024-03-25T14:48:42;0.80;;;0.80;;
10523;SDS011;5310;48.638;9.060;2024-03-25T14:51:08;0.80;;;0.80;;
10523;SDS011;5310;48.638;9.060;2024-03-25T14:53:34;0.80;;;0.80;;
10523;SDS011;5310;48.638;9.060;2024-03-25T14:56:00;0.80;;;0.80;;
10523;SDS011;5310;48.638;9.060;2024-03-25T14:58:26;0.90;;;0.90;;